createdAt,value
2019-05-10T00:05:04.883Z,1.90
2019-05-10T00:10:06.982Z,1.00
2019-05-10T00:15:09.731Z,1.07
2019-05-10T00:20:12.433Z,2.00
2019-05-10T00:25:15.029Z,1.40
2019-05-10T00:30:17.612Z,0.93
2019-05-10T00:35:20.158Z,2.60
2019-05-10T00:40:22.753Z,1.30
2019-05-10T00:45:25.549Z,1.23
2019-05-10T00:50:28.214Z,1.67
2019-05-10T00:55:30.768Z,1.90
2019-05-10T01:00:33.356Z,1.00
2019-05-10T01:05:35.927Z,1.07
2019-05-10T01:10:38.513Z,1.40
2019-05-10T01:15:46.842Z,1.90
2019-05-10T01:20:46.600Z,2.00
2019-05-10T01:25:49.179Z,3.37
2019-05-10T01:30:51.736Z,2.43
2019-05-10T01:35:54.385Z,0.93
2019-05-10T01:40:56.976Z,1.27
2019-05-10T01:45:59.618Z,2.63
2019-05-10T01:51:02.351Z,2.20
2019-05-10T01:56:04.884Z,2.37
2019-05-10T02:01:07.477Z,0.83
2019-05-10T02:06:10.077Z,1.57
2019-05-10T02:11:12.601Z,1.93
2019-05-10T02:16:15.193Z,1.77
2019-05-10T02:21:17.773Z,2.97
2019-05-10T02:26:20.321Z,2.67
2019-05-10T02:31:22.957Z,1.40
2019-05-10T02:36:25.496Z,1.07
2019-05-10T02:41:28.142Z,0.97
2019-05-10T02:46:30.770Z,1.17
2019-05-10T02:51:33.297Z,1.67
2019-05-10T02:56:36.340Z,2.83
2019-05-10T03:01:39.022Z,4.27
2019-05-10T03:06:41.887Z,1.63
2019-05-10T03:11:46.390Z,1.70
2019-05-10T03:16:50.651Z,3.63
2019-05-10T03:22:01.766Z,1.20
2019-05-10T03:27:04.309Z,2.37
2019-05-10T03:32:06.946Z,3.07
2019-05-10T03:37:09.506Z,1.27
2019-05-10T03:42:12.070Z,2.63
2019-05-10T03:47:15.063Z,3.20
2019-05-10T03:52:17.661Z,3.60
2019-05-10T03:57:20.227Z,2.70
2019-05-10T04:02:22.771Z,3.07
2019-05-10T04:07:25.469Z,2.63
2019-05-10T04:12:28.354Z,2.07
2019-05-10T04:17:30.856Z,1.97
2019-05-10T04:22:33.439Z,3.07
2019-05-10T04:27:36.023Z,3.00
2019-05-10T04:32:38.578Z,4.07
2019-05-10T04:37:41.101Z,2.67
2019-05-10T04:42:43.620Z,2.50
2019-05-10T04:47:46.215Z,2.67
2019-05-10T04:52:48.799Z,1.93
2019-05-10T04:57:51.525Z,3.37
2019-05-10T05:02:53.930Z,2.73
2019-05-10T05:07:56.468Z,3.67
2019-05-10T05:12:59.043Z,2.30
2019-05-10T05:18:01.593Z,10.60
2019-05-10T05:23:04.235Z,9.00
2019-05-10T05:28:08.414Z,6.30
2019-05-10T05:33:09.377Z,2.63
2019-05-10T05:38:11.961Z,3.63
2019-05-10T05:43:14.440Z,4.17
2019-05-10T05:48:21.285Z,2.57
2019-05-10T05:53:22.415Z,3.20
2019-05-10T05:58:27.070Z,5.30
2019-05-10T06:03:29.516Z,4.57
2019-05-10T06:08:30.064Z,2.33
2019-05-10T06:13:30.749Z,2.70
2019-05-10T06:18:32.519Z,4.20
2019-05-10T06:23:35.487Z,4.53
2019-05-10T06:28:57.320Z,3.53
2019-05-10T06:33:45.067Z,3.73
2019-05-10T06:38:42.843Z,4.43
2019-05-10T06:43:50.572Z,5.23
2019-05-10T06:48:48.031Z,4.30
2019-05-10T06:53:53.658Z,3.77
2019-05-10T06:58:53.110Z,4.17
2019-05-10T07:03:55.683Z,4.20
2019-05-10T07:08:59.520Z,2.43
2019-05-10T07:14:00.965Z,3.77
2019-05-10T07:19:03.629Z,3.87
2019-05-10T07:24:06.211Z,3.70
2019-05-10T07:29:08.876Z,3.37
2019-05-10T07:34:15.738Z,3.70
2019-05-10T07:39:14.130Z,4.30
2019-05-10T07:44:18.247Z,5.07
2019-05-10T07:49:23.829Z,3.37
2019-05-10T07:54:23.501Z,5.27
2019-05-10T07:59:30.375Z,3.67
2019-05-10T08:04:33.403Z,4.47
2019-05-10T08:09:31.803Z,2.27
2019-05-10T08:14:33.751Z,2.83
2019-05-10T08:19:37.689Z,3.17
2019-05-10T08:24:44.546Z,3.47
2019-05-10T08:29:42.921Z,3.03
2019-05-10T08:34:51.671Z,2.17
2019-05-10T08:39:49.445Z,3.20
2019-05-10T08:44:54.107Z,4.13
2019-05-10T08:50:09.495Z,2.43
2019-05-10T08:54:55.267Z,3.43
2019-05-10T09:00:06.608Z,3.33
2019-05-10T09:05:02.413Z,3.33
2019-05-10T09:10:02.481Z,4.47
2019-05-10T09:15:09.886Z,5.03
2019-05-10T09:20:14.016Z,2.90
2019-05-10T09:25:12.919Z,3.30
2019-05-10T09:30:18.611Z,3.07
2019-05-10T09:35:22.033Z,3.37
2019-05-10T09:40:22.153Z,2.80
2019-05-10T09:45:24.862Z,2.73
2019-05-10T09:50:30.594Z,2.37
2019-05-10T09:55:30.110Z,4.47
2019-05-10T10:00:33.267Z,2.60
2019-05-10T10:05:39.766Z,2.10
2019-05-10T10:10:38.773Z,3.00
2019-05-10T10:15:41.519Z,3.63
2019-05-10T10:20:45.400Z,4.80
2019-05-10T10:25:48.414Z,4.00
2019-05-10T10:30:58.294Z,2.20
2019-05-10T10:35:56.203Z,3.63
2019-05-10T10:40:54.427Z,5.80
2019-05-10T10:45:57.559Z,6.10
2019-05-10T10:50:59.719Z,3.20
2019-05-10T10:56:03.898Z,4.23
2019-05-10T11:01:10.723Z,3.77
2019-05-10T11:06:07.527Z,8.50
2019-05-10T11:11:10.657Z,5.47
2019-05-10T11:16:15.782Z,4.97
2019-05-10T11:21:15.497Z,4.07
2019-05-10T11:26:18.035Z,4.67
2019-05-10T11:31:21.366Z,4.90
2019-05-10T11:36:23.214Z,4.73
2019-05-10T11:41:25.792Z,2.70
2019-05-10T11:46:30.885Z,3.73
2019-05-10T11:51:31.698Z,2.13
2019-05-10T11:56:33.672Z,3.83
2019-05-10T12:01:41.524Z,3.73
2019-05-10T12:06:41.127Z,2.37
2019-05-10T12:11:51.832Z,2.87
2019-05-10T12:16:44.197Z,5.37
2019-05-10T12:21:46.821Z,3.57
2019-05-10T12:31:55.103Z,3.87
2019-05-10T12:36:57.448Z,2.67
2019-05-10T12:41:57.385Z,4.63
2019-05-10T12:47:01.263Z,2.80
2019-05-10T12:52:03.364Z,3.63
2019-05-10T12:57:05.111Z,4.13
2019-05-10T13:02:11.190Z,3.57
2019-05-10T13:07:10.281Z,4.10
2019-05-10T13:12:12.861Z,3.67
2019-05-10T13:17:17.120Z,2.87
2019-05-10T13:22:18.227Z,2.20
2019-05-10T13:27:20.814Z,2.10
2019-05-10T13:32:23.443Z,3.87
2019-05-10T13:37:26.013Z,3.00
2019-05-10T13:42:28.596Z,3.87
2019-05-10T13:47:31.169Z,2.67
2019-05-10T13:52:38.110Z,2.43
2019-05-10T13:57:36.291Z,2.80
2019-05-10T14:02:38.846Z,3.73
2019-05-10T14:07:50.525Z,6.33
2019-05-10T14:12:43.982Z,23.53
2019-05-10T14:17:47.065Z,3.73
2019-05-10T14:22:56.015Z,2.93
2019-05-10T14:27:52.193Z,3.70
2019-05-10T14:32:54.899Z,1.73
2019-05-10T14:38:07.517Z,2.60
2019-05-10T14:43:00.174Z,3.10
2019-05-10T14:48:03.065Z,2.07
2019-05-10T14:53:05.901Z,1.83
2019-05-10T14:58:08.546Z,3.50
2019-05-10T15:03:11.384Z,4.27
2019-05-10T15:08:14.066Z,4.00
2019-05-10T15:13:19.683Z,2.03
2019-05-10T15:18:20.029Z,3.87
2019-05-10T15:23:22.589Z,3.30
2019-05-10T15:28:25.285Z,4.80
2019-05-10T15:33:27.901Z,2.70
2019-05-10T15:38:30.549Z,3.00
2019-05-10T15:43:33.149Z,4.90
2019-05-10T15:48:36.700Z,4.77
2019-05-10T15:53:38.305Z,2.40
2019-05-10T15:58:42.588Z,4.23
2019-05-10T16:03:43.755Z,3.07
2019-05-10T16:08:46.396Z,3.90
2019-05-10T16:13:48.983Z,2.70
2019-05-10T16:18:51.574Z,3.47
2019-05-10T16:23:54.165Z,3.97
2019-05-10T16:29:02.108Z,3.13
2019-05-10T16:34:02.410Z,3.27
2019-05-10T16:39:06.890Z,3.20
2019-05-10T16:44:09.682Z,3.70
2019-05-10T16:49:15.599Z,3.80
2019-05-10T16:54:24.642Z,4.70
2019-05-10T16:59:19.005Z,3.07
2019-05-10T17:04:21.606Z,4.67
2019-05-10T17:09:24.160Z,5.03
2019-05-10T17:14:26.904Z,5.80
2019-05-10T17:19:33.902Z,5.10
2019-05-10T17:24:32.147Z,4.57
2019-05-10T17:29:35.009Z,5.87
2019-05-10T17:34:37.601Z,5.07
2019-05-10T17:39:40.245Z,7.47
2019-05-10T17:44:43.699Z,14.53
2019-05-10T17:49:45.808Z,6.90
2019-05-10T17:54:48.455Z,9.93
2019-05-10T17:59:52.887Z,6.87
2019-05-10T18:04:53.856Z,6.37
2019-05-10T18:09:56.522Z,5.53
2019-05-10T18:14:59.231Z,7.20
2019-05-10T18:20:03.968Z,9.10
2019-05-10T18:25:04.608Z,6.87
2019-05-10T18:30:07.330Z,7.97
2019-05-10T18:35:14.604Z,6.47
2019-05-10T18:40:12.973Z,7.80
2019-05-10T18:45:15.700Z,8.00
2019-05-10T18:50:18.363Z,8.10
2019-05-10T18:55:20.991Z,9.70
2019-05-10T19:00:25.251Z,8.80
2019-05-10T19:05:31.447Z,12.47
2019-05-10T19:10:29.523Z,10.13
2019-05-10T19:15:32.722Z,9.90
2019-05-10T19:20:35.323Z,9.07
2019-05-10T19:25:38.974Z,8.83
2019-05-10T19:30:41.659Z,9.07
2019-05-10T19:35:45.786Z,10.17
2019-05-10T19:40:50.125Z,11.63
2019-05-10T19:45:57.627Z,10.73
2019-05-10T19:50:55.549Z,11.47
2019-05-10T19:55:59.589Z,10.90
2019-05-10T20:01:02.216Z,11.67
2019-05-10T20:06:04.879Z,10.73
2019-05-10T20:11:08.181Z,11.40
2019-05-10T20:16:10.754Z,9.17
2019-05-10T20:21:13.302Z,10.90
2019-05-10T20:26:15.887Z,9.50
2019-05-10T20:31:18.785Z,9.20
2019-05-10T20:36:21.370Z,11.63
2019-05-10T20:41:23.976Z,10.23
2019-05-10T20:46:26.585Z,10.23
2019-05-10T20:51:29.279Z,11.47
2019-05-10T20:56:31.876Z,10.47
2019-05-10T21:01:34.732Z,10.30
2019-05-10T21:06:37.323Z,13.23
2019-05-10T21:11:39.907Z,10.50
2019-05-10T21:16:42.536Z,12.90
2019-05-10T21:21:45.187Z,9.63
2019-05-10T21:26:47.811Z,10.03
2019-05-10T21:31:50.414Z,9.30
2019-05-10T21:36:53.147Z,9.93
2019-05-10T21:41:55.689Z,10.47
2019-05-10T21:46:58.255Z,9.13
2019-05-10T21:52:00.821Z,9.63
2019-05-10T21:57:03.523Z,11.30
2019-05-10T22:02:06.198Z,11.00
2019-05-10T22:07:08.708Z,10.67
2019-05-10T22:12:11.324Z,10.53
2019-05-10T22:17:13.961Z,11.27
2019-05-10T22:22:16.510Z,8.97
2019-05-10T22:27:19.067Z,8.87
2019-05-10T22:32:21.683Z,10.83
2019-05-10T22:37:24.241Z,10.27
2019-05-10T22:42:26.797Z,9.80
2019-05-10T22:47:29.429Z,11.77
2019-05-10T22:52:32.049Z,10.43
2019-05-10T22:57:34.541Z,10.07
2019-05-10T23:02:37.083Z,12.47
2019-05-10T23:07:39.644Z,8.93
2019-05-10T23:12:42.245Z,10.60
2019-05-10T23:17:44.830Z,9.30
2019-05-10T23:22:47.320Z,9.17
2019-05-10T23:27:49.848Z,9.33
2019-05-10T23:32:52.456Z,11.50
2019-05-10T23:37:54.973Z,10.10
2019-05-10T23:42:57.617Z,9.63
2019-05-10T23:48:00.245Z,11.47
2019-05-10T23:53:02.811Z,9.23
2019-05-10T23:58:05.415Z,9.20
